sensor_id;sensor_type;location;lat;lon;timestamp;P1;durP1;ratioP1;P2;durP2;ratioP2
12459;SDS011;6295;49.452;8.466;2022-10-22T05:12:53;1.30;;;1.10;;
12459;SDS011;6295;49.452;8.466;2022-10-22T05:16:55;1.37;;;1.00;;
12459;SDS011;6295;49.452;8.466;2022-10-22T05:20:57;2.67;;;1.10;;
12459;SDS011;6295;49.452;8.466;2022-10-22T05:25:00;0.90;;;0.90;;
12459;SDS011;6295;49.452;8.466;2022-10-22T05:29:04;1.60;;;1.10;;
12459;SDS011;6295;49.452;8.466;2022-10-22T05:33:06;1.83;;;1.00;;
12459;SDS011;6295;49.452;8.466;2022-10-22T05:37:08;2.10;;;0.93;;
12459;SDS011;6295;49.452;8.466;2022-10-22T05:41:11;1.13;;;0.90;;
12459;SDS011;6295;49.452;8.466;2022-10-22T05:45:16;1.47;;;0.90;;
12459;SDS011;6295;49.452;8.466;2022-10-22T05:49:18;0.80;;;0.80;;
12459;SDS011;6295;49.452;8.466;2022-10-22T05:53:21;2.33;;;0.93;;
12459;SDS011;6295;49.452;8.466;2022-10-22T05:57:23;1.63;;;1.00;;
12459;SDS011;6295;49.452;8.466;2022-10-22T06:01:27;1.77;;;1.00;;
12459;SDS011;6295;49.452;8.466;2022-10-22T06:05:33;1.43;;;0.90;;
12459;SDS011;6295;49.452;8.466;2022-10-22T06:09:35;1.10;;;1.00;;
12459;SDS011;6295;49.452;8.466;2022-10-22T06:13:38;1.07;;;0.97;;
12459;SDS011;6295;49.452;8.466;2022-10-22T06:17:42;3.47;;;1.07;;
12459;SDS011;6295;49.452;8.466;2022-10-22T06:21:44;1.47;;;1.10;;
12459;SDS011;6295;49.452;8.466;2022-10-22T06:25:54;2.27;;;1.13;;
12459;SDS011;6295;49.452;8.466;2022-10-22T06:29:57;2.07;;;1.00;;
12459;SDS011;6295;49.452;8.466;2022-10-22T06:34:00;1.40;;;1.10;;
12459;SDS011;6295;49.452;8.466;2022-10-22T06:38:03;1.43;;;0.97;;
12459;SDS011;6295;49.452;8.466;2022-10-22T06:42:06;1.30;;;0.93;;
12459;SDS011;6295;49.452;8.466;2022-10-22T06:46:09;1.60;;;0.90;;
12459;SDS011;6295;49.452;8.466;2022-10-22T06:50:15;1.33;;;1.20;;
12459;SDS011;6295;49.452;8.466;2022-10-22T06:54:18;0.80;;;0.80;;
12459;SDS011;6295;49.452;8.466;2022-10-22T06:58:20;2.20;;;1.30;;
12459;SDS011;6295;49.452;8.466;2022-10-22T07:02:23;1.30;;;1.00;;
12459;SDS011;6295;49.452;8.466;2022-10-22T07:06:26;1.10;;;1.00;;
12459;SDS011;6295;49.452;8.466;2022-10-22T07:10:29;1.00;;;1.00;;
12459;SDS011;6295;49.452;8.466;2022-10-22T07:14:31;1.00;;;0.90;;
12459;SDS011;6295;49.452;8.466;2022-10-22T07:18:34;1.27;;;0.90;;
12459;SDS011;6295;49.452;8.466;2022-10-22T07:22:40;1.03;;;0.90;;
12459;SDS011;6295;49.452;8.466;2022-10-22T07:26:44;1.23;;;0.97;;
12459;SDS011;6295;49.452;8.466;2022-10-22T07:30:46;1.03;;;0.90;;
12459;SDS011;6295;49.452;8.466;2022-10-22T07:34:48;1.10;;;1.00;;
12459;SDS011;6295;49.452;8.466;2022-10-22T07:38:54;1.00;;;0.90;;
12459;SDS011;6295;49.452;8.466;2022-10-22T07:42:57;1.20;;;1.10;;
12459;SDS011;6295;49.452;8.466;2022-10-22T07:47:00;1.30;;;1.10;;
12459;SDS011;6295;49.452;8.466;2022-10-22T07:51:02;1.30;;;1.17;;
12459;SDS011;6295;49.452;8.466;2022-10-22T07:55:06;1.47;;;1.10;;
12459;SDS011;6295;49.452;8.466;2022-10-22T07:59:09;1.30;;;1.20;;
12459;SDS011;6295;49.452;8.466;2022-10-22T08:03:13;1.60;;;1.50;;
12459;SDS011;6295;49.452;8.466;2022-10-22T08:07:18;1.90;;;1.50;;
12459;SDS011;6295;49.452;8.466;2022-10-22T08:11:23;1.53;;;1.30;;
12459;SDS011;6295;49.452;8.466;2022-10-22T08:15:27;1.10;;;1.00;;
12459;SDS011;6295;49.452;8.466;2022-10-22T08:19:30;1.80;;;1.20;;
12459;SDS011;6295;49.452;8.466;2022-10-22T08:23:34;1.20;;;1.10;;
12459;SDS011;6295;49.452;8.466;2022-10-22T08:27:39;1.40;;;1.30;;
12459;SDS011;6295;49.452;8.466;2022-10-22T08:31:42;1.30;;;1.20;;
12459;SDS011;6295;49.452;8.466;2022-10-22T08:35:47;1.67;;;1.33;;
12459;SDS011;6295;49.452;8.466;2022-10-22T08:39:52;1.70;;;1.07;;
12459;SDS011;6295;49.452;8.466;2022-10-22T08:44:04;1.20;;;1.10;;
12459;SDS011;6295;49.452;8.466;2022-10-22T08:48:30;1.83;;;1.20;;
12459;SDS011;6295;49.452;8.466;2022-10-22T08:52:43;1.30;;;1.10;;
12459;SDS011;6295;49.452;8.466;2022-10-22T08:56:52;2.03;;;1.23;;
12459;SDS011;6295;49.452;8.466;2022-10-22T09:01:13;1.83;;;1.30;;
12459;SDS011;6295;49.452;8.466;2022-10-22T09:05:21;1.07;;;1.00;;
12459;SDS011;6295;49.452;8.466;2022-10-22T09:09:37;2.07;;;0.90;;
12459;SDS011;6295;49.452;8.466;2022-10-22T09:13:47;1.87;;;1.00;;
12459;SDS011;6295;49.452;8.466;2022-10-22T09:17:58;1.43;;;0.90;;
12459;SDS011;6295;49.452;8.466;2022-10-22T09:22:14;1.37;;;1.10;;
12459;SDS011;6295;49.452;8.466;2022-10-22T09:26:27;1.10;;;1.00;;
12459;SDS011;6295;49.452;8.466;2022-10-22T09:30:32;0.90;;;0.90;;
12459;SDS011;6295;49.452;8.466;2022-10-22T09:34:39;2.00;;;1.17;;
12459;SDS011;6295;49.452;8.466;2022-10-22T09:38:46;2.33;;;1.30;;
12459;SDS011;6295;49.452;8.466;2022-10-22T09:42:50;1.43;;;1.03;;
12459;SDS011;6295;49.452;8.466;2022-10-22T09:46:52;0.97;;;0.90;;
12459;SDS011;6295;49.452;8.466;2022-10-22T09:50:57;1.40;;;0.97;;
12459;SDS011;6295;49.452;8.466;2022-10-22T09:55:07;1.47;;;1.10;;
12459;SDS011;6295;49.452;8.466;2022-10-22T09:59:16;1.07;;;0.90;;
12459;SDS011;6295;49.452;8.466;2022-10-22T10:03:21;2.30;;;1.33;;
12459;SDS011;6295;49.452;8.466;2022-10-22T10:07:29;0.90;;;0.80;;
12459;SDS011;6295;49.452;8.466;2022-10-22T10:11:34;1.30;;;1.00;;
12459;SDS011;6295;49.452;8.466;2022-10-22T10:15:44;1.50;;;0.90;;
12459;SDS011;6295;49.452;8.466;2022-10-22T10:19:58;1.30;;;0.93;;
12459;SDS011;6295;49.452;8.466;2022-10-22T10:24:12;1.17;;;1.07;;
12459;SDS011;6295;49.452;8.466;2022-10-22T10:28:25;1.30;;;1.00;;
12459;SDS011;6295;49.452;8.466;2022-10-22T10:32:47;2.37;;;1.40;;
12459;SDS011;6295;49.452;8.466;2022-10-22T10:37:15;2.90;;;1.40;;
12459;SDS011;6295;49.452;8.466;2022-10-22T10:41:26;2.63;;;1.30;;
12459;SDS011;6295;49.452;8.466;2022-10-22T10:45:40;2.50;;;1.20;;
12459;SDS011;6295;49.452;8.466;2022-10-22T10:49:48;2.63;;;1.30;;
12459;SDS011;6295;49.452;8.466;2022-10-22T10:53:58;2.50;;;1.07;;
12459;SDS011;6295;49.452;8.466;2022-10-22T10:58:14;1.50;;;1.23;;
12459;SDS011;6295;49.452;8.466;2022-10-22T11:07:10;2.93;;;1.37;;
12459;SDS011;6295;49.452;8.466;2022-10-22T11:11:18;2.23;;;1.33;;
12459;SDS011;6295;49.452;8.466;2022-10-22T11:15:29;2.00;;;1.43;;
12459;SDS011;6295;49.452;8.466;2022-10-22T11:19:35;2.23;;;1.27;;
12459;SDS011;6295;49.452;8.466;2022-10-22T11:23:43;4.00;;;1.40;;
12459;SDS011;6295;49.452;8.466;2022-10-22T11:27:52;1.80;;;1.50;;
12459;SDS011;6295;49.452;8.466;2022-10-22T11:31:59;2.27;;;1.50;;
12459;SDS011;6295;49.452;8.466;2022-10-22T11:36:04;1.83;;;1.30;;
12459;SDS011;6295;49.452;8.466;2022-10-22T11:40:13;2.70;;;1.40;;
12459;SDS011;6295;49.452;8.466;2022-10-22T11:44:19;12.10;;;1.97;;
12459;SDS011;6295;49.452;8.466;2022-10-22T11:48:27;12.50;;;2.10;;
12459;SDS011;6295;49.452;8.466;2022-10-22T11:52:39;3.07;;;1.60;;
12459;SDS011;6295;49.452;8.466;2022-10-22T11:56:50;3.23;;;1.40;;
12459;SDS011;6295;49.452;8.466;2022-10-22T12:01:16;3.07;;;1.27;;
12459;SDS011;6295;49.452;8.466;2022-10-22T12:09:39;2.17;;;1.40;;
12459;SDS011;6295;49.452;8.466;2022-10-22T12:13:56;4.30;;;1.63;;
12459;SDS011;6295;49.452;8.466;2022-10-22T12:18:04;3.77;;;1.70;;
12459;SDS011;6295;49.452;8.466;2022-10-22T12:22:14;3.00;;;1.90;;
12459;SDS011;6295;49.452;8.466;2022-10-22T12:26:22;2.43;;;1.60;;
12459;SDS011;6295;49.452;8.466;2022-10-22T12:30:27;3.07;;;1.50;;
12459;SDS011;6295;49.452;8.466;2022-10-22T12:34:33;2.33;;;1.50;;
12459;SDS011;6295;49.452;8.466;2022-10-22T12:38:37;2.00;;;1.50;;
12459;SDS011;6295;49.452;8.466;2022-10-22T12:42:49;3.00;;;1.37;;
12459;SDS011;6295;49.452;8.466;2022-10-22T12:46:52;3.07;;;1.50;;
12459;SDS011;6295;49.452;8.466;2022-10-22T12:50:56;3.57;;;1.47;;
12459;SDS011;6295;49.452;8.466;2022-10-22T12:55:03;5.03;;;1.77;;
12459;SDS011;6295;49.452;8.466;2022-10-22T12:59:11;2.40;;;1.60;;
12459;SDS011;6295;49.452;8.466;2022-10-22T13:03:24;2.60;;;1.60;;
12459;SDS011;6295;49.452;8.466;2022-10-22T13:07:36;5.77;;;2.03;;
12459;SDS011;6295;49.452;8.466;2022-10-22T13:11:40;3.23;;;1.90;;
12459;SDS011;6295;49.452;8.466;2022-10-22T13:15:49;2.70;;;1.97;;
12459;SDS011;6295;49.452;8.466;2022-10-22T13:19:58;4.33;;;1.87;;
12459;SDS011;6295;49.452;8.466;2022-10-22T13:24:17;2.83;;;1.57;;
12459;SDS011;6295;49.452;8.466;2022-10-22T13:28:22;3.53;;;1.57;;
12459;SDS011;6295;49.452;8.466;2022-10-22T13:32:29;3.30;;;1.40;;
12459;SDS011;6295;49.452;8.466;2022-10-22T13:36:32;2.00;;;1.50;;
12459;SDS011;6295;49.452;8.466;2022-10-22T13:40:34;2.77;;;1.40;;
12459;SDS011;6295;49.452;8.466;2022-10-22T13:44:40;2.33;;;1.50;;
12459;SDS011;6295;49.452;8.466;2022-10-22T13:48:43;3.07;;;1.40;;
12459;SDS011;6295;49.452;8.466;2022-10-22T13:52:48;2.13;;;1.53;;
12459;SDS011;6295;49.452;8.466;2022-10-22T13:56:52;3.57;;;1.67;;
12459;SDS011;6295;49.452;8.466;2022-10-22T14:00:56;4.03;;;1.70;;
12459;SDS011;6295;49.452;8.466;2022-10-22T14:05:00;5.20;;;1.73;;
12459;SDS011;6295;49.452;8.466;2022-10-22T14:09:06;2.97;;;1.73;;
12459;SDS011;6295;49.452;8.466;2022-10-22T14:13:14;5.53;;;2.03;;
12459;SDS011;6295;49.452;8.466;2022-10-22T14:17:19;4.23;;;1.90;;
12459;SDS011;6295;49.452;8.466;2022-10-22T14:21:21;2.83;;;1.90;;
12459;SDS011;6295;49.452;8.466;2022-10-22T14:25:25;3.20;;;1.70;;
12459;SDS011;6295;49.452;8.466;2022-10-22T14:29:43;2.83;;;1.70;;
12459;SDS011;6295;49.452;8.466;2022-10-22T14:33:46;1.73;;;1.40;;
12459;SDS011;6295;49.452;8.466;2022-10-22T14:37:49;2.53;;;1.50;;
12459;SDS011;6295;49.452;8.466;2022-10-22T14:41:51;2.77;;;1.50;;
12459;SDS011;6295;49.452;8.466;2022-10-22T14:45:54;4.37;;;2.03;;
12459;SDS011;6295;49.452;8.466;2022-10-22T14:49:59;2.70;;;1.50;;
12459;SDS011;6295;49.452;8.466;2022-10-22T14:54:03;1.47;;;1.30;;
12459;SDS011;6295;49.452;8.466;2022-10-22T14:58:07;4.27;;;1.60;;
12459;SDS011;6295;49.452;8.466;2022-10-22T15:02:11;1.90;;;1.40;;
12459;SDS011;6295;49.452;8.466;2022-10-22T15:06:15;2.37;;;1.50;;
12459;SDS011;6295;49.452;8.466;2022-10-22T15:10:17;2.50;;;1.40;;
12459;SDS011;6295;49.452;8.466;2022-10-22T15:14:20;1.40;;;1.30;;
12459;SDS011;6295;49.452;8.466;2022-10-22T15:18:22;2.40;;;1.50;;
12459;SDS011;6295;49.452;8.466;2022-10-22T15:22:26;2.70;;;1.77;;
12459;SDS011;6295;49.452;8.466;2022-10-22T15:26:30;2.07;;;1.50;;
12459;SDS011;6295;49.452;8.466;2022-10-22T15:30:32;3.27;;;1.50;;
12459;SDS011;6295;49.452;8.466;2022-10-22T15:34:36;1.77;;;1.30;;
12459;SDS011;6295;49.452;8.466;2022-10-22T15:38:40;1.73;;;1.47;;
12459;SDS011;6295;49.452;8.466;2022-10-22T15:42:43;4.00;;;1.40;;
12459;SDS011;6295;49.452;8.466;2022-10-22T15:46:45;2.53;;;1.50;;
12459;SDS011;6295;49.452;8.466;2022-10-22T15:50:47;2.90;;;1.40;;
12459;SDS011;6295;49.452;8.466;2022-10-22T15:54:51;2.57;;;1.50;;
12459;SDS011;6295;49.452;8.466;2022-10-22T15:58:55;2.77;;;1.63;;
12459;SDS011;6295;49.452;8.466;2022-10-22T16:03:00;4.80;;;1.83;;
12459;SDS011;6295;49.452;8.466;2022-10-22T16:07:02;1.97;;;1.40;;
12459;SDS011;6295;49.452;8.466;2022-10-22T16:11:08;4.13;;;1.50;;
12459;SDS011;6295;49.452;8.466;2022-10-22T16:15:13;3.47;;;1.70;;
12459;SDS011;6295;49.452;8.466;2022-10-22T16:19:17;2.07;;;1.67;;
12459;SDS011;6295;49.452;8.466;2022-10-22T16:23:22;3.17;;;1.80;;
12459;SDS011;6295;49.452;8.466;2022-10-22T16:27:27;4.13;;;1.70;;
12459;SDS011;6295;49.452;8.466;2022-10-22T16:31:29;3.57;;;1.77;;
12459;SDS011;6295;49.452;8.466;2022-10-22T16:35:32;2.90;;;1.70;;
12459;SDS011;6295;49.452;8.466;2022-10-22T16:39:35;2.63;;;1.80;;
12459;SDS011;6295;49.452;8.466;2022-10-22T16:43:39;4.17;;;1.80;;
12459;SDS011;6295;49.452;8.466;2022-10-22T16:47:41;5.20;;;2.00;;
12459;SDS011;6295;49.452;8.466;2022-10-22T16:51:46;5.67;;;1.93;;
12459;SDS011;6295;49.452;8.466;2022-10-22T16:55:48;4.80;;;2.30;;
12459;SDS011;6295;49.452;8.466;2022-10-22T16:59:51;3.50;;;2.10;;
12459;SDS011;6295;49.452;8.466;2022-10-22T17:03:54;3.40;;;2.40;;
12459;SDS011;6295;49.452;8.466;2022-10-22T17:07:57;3.20;;;2.10;;
12459;SDS011;6295;49.452;8.466;2022-10-22T17:11:59;6.07;;;2.50;;
12459;SDS011;6295;49.452;8.466;2022-10-22T17:16:03;6.73;;;3.20;;
12459;SDS011;6295;49.452;8.466;2022-10-22T17:20:07;10.37;;;5.13;;
12459;SDS011;6295;49.452;8.466;2022-10-22T17:24:10;7.13;;;4.30;;
12459;SDS011;6295;49.452;8.466;2022-10-22T17:28:13;5.77;;;4.20;;
12459;SDS011;6295;49.452;8.466;2022-10-22T17:32:17;6.13;;;3.37;;
12459;SDS011;6295;49.452;8.466;2022-10-22T17:36:20;7.83;;;3.33;;
12459;SDS011;6295;49.452;8.466;2022-10-22T17:40:23;3.97;;;2.50;;
12459;SDS011;6295;49.452;8.466;2022-10-22T17:44:26;5.33;;;2.90;;
12459;SDS011;6295;49.452;8.466;2022-10-22T17:48:29;4.03;;;2.30;;
12459;SDS011;6295;49.452;8.466;2022-10-22T17:52:32;5.23;;;2.40;;
12459;SDS011;6295;49.452;8.466;2022-10-22T17:56:35;3.83;;;2.80;;
12459;SDS011;6295;49.452;8.466;2022-10-22T18:00:39;6.13;;;4.00;;
12459;SDS011;6295;49.452;8.466;2022-10-22T18:04:42;9.97;;;4.87;;
12459;SDS011;6295;49.452;8.466;2022-10-22T18:08:45;8.17;;;5.40;;
12459;SDS011;6295;49.452;8.466;2022-10-22T18:12:47;8.80;;;5.60;;
12459;SDS011;6295;49.452;8.466;2022-10-22T18:16:49;8.77;;;5.47;;
12459;SDS011;6295;49.452;8.466;2022-10-22T18:20:53;6.90;;;5.00;;
12459;SDS011;6295;49.452;8.466;2022-10-22T18:24:55;9.10;;;5.87;;
12459;SDS011;6295;49.452;8.466;2022-10-22T18:28:57;11.27;;;6.13;;
12459;SDS011;6295;49.452;8.466;2022-10-22T18:32:59;9.30;;;5.37;;
12459;SDS011;6295;49.452;8.466;2022-10-22T18:37:04;7.73;;;4.80;;
12459;SDS011;6295;49.452;8.466;2022-10-22T18:41:08;6.13;;;4.37;;
12459;SDS011;6295;49.452;8.466;2022-10-22T18:45:13;7.30;;;3.77;;
12459;SDS011;6295;49.452;8.466;2022-10-22T18:49:17;4.07;;;3.27;;
12459;SDS011;6295;49.452;8.466;2022-10-22T18:53:22;5.30;;;3.20;;
